Duncan, Iowa
Current Conditions -  °F | °C
As of 8:55 PM on Wednesday 26 Nov 2014 (Local Time) from KFXY Reporting Station
Overcast Overcast  
Wind Chill:   Ceiling: 1500
Heat Index: 18°   Visibility: 10mi
Dew Point: 16°   Wind: 17mph
Humidity: 93%   Direction: 320°NW
Pressure: 30.32"   Gusts: 23mph
Location:  43.1015°N, 93.7581°W
Report Text: KFXY 270255Z AUTO 32015G20KT 10SM BKN015 OVC025 M08/M09 A3032 RMK AO2
Loading
Personal Weather Stations






























Interactive Weather Map New forecast layout! Learn more

10-Day Weather Forecast

Advertisements
Track Severe Weather on mobile